Time;durP1;ratioP1;P1;durP2;ratioP2;P2;SDS_P1;SDS_P2;PMS_P1;PMS_P2;Temp;Humidity;BMP_temperature;BMP_pressure;BME280_temperature;BME280_humidity;BME280_pressure;Samples;Min_cycle;Max_cycle;Signal;HPM_P1;HPM_P2
2022/05/06 00:02:09;;;;;;;2.30;1.97;;;;;;;8.98;87.05;101153.50;5051366;28;20270;-71
2022/05/06 00:04:35;;;;;;;3.27;2.57;;;;;;;8.91;87.62;101147.53;5051271;28;20203;-71
2022/05/06 00:07:00;;;;;;;2.43;1.90;;;;;;;8.87;87.82;101162.81;5051473;28;20206;-71
2022/05/06 00:09:26;;;;;;;2.37;1.70;;;;;;;8.84;87.90;101158.75;5051123;28;20572;-71
2022/05/06 00:11:51;;;;;;;2.10;1.90;;;;;;;8.89;87.33;101158.72;5032966;28;20178;-70
2022/05/06 00:14:17;;;;;;;2.20;1.80;;;;;;;8.79;87.27;101157.97;5033138;28;20267;-71
2022/05/06 00:16:42;;;;;;;2.73;2.00;;;;;;;8.68;88.94;101164.56;5050913;28;20250;-71
2022/05/06 00:19:08;;;;;;;1.80;1.70;;;;;;;8.61;89.44;101159.44;5050834;28;20295;-72
2022/05/06 00:21:33;;;;;;;2.73;2.20;;;;;;;8.57;90.37;101161.09;5033146;28;20240;-71
2022/05/06 00:23:58;;;;;;;2.83;1.93;;;;;;;8.53;90.59;101165.44;5050718;28;20175;-72
2022/05/06 00:26:24;;;;;;;2.10;1.80;;;;;;;8.48;91.47;101162.75;5050536;28;20175;-71
2022/05/06 00:28:49;;;;;;;2.03;1.93;;;;;;;8.48;90.84;101162.75;5050527;28;20274;-71
2022/05/06 00:31:14;;;;;;;3.37;2.13;;;;;;;8.52;91.36;101166.53;5032886;28;20179;-71
2022/05/06 00:33:40;;;;;;;2.27;2.03;;;;;;;8.53;90.76;101168.16;5050669;28;20182;-72
2022/05/06 00:36:05;;;;;;;2.10;1.77;;;;;;;8.50;90.50;101164.09;5050543;28;20190;-71
2022/05/06 00:38:31;;;;;;;2.90;1.80;;;;;;;8.39;90.66;101168.00;5050499;28;20171;-71
2022/05/06 00:40:57;;;;;;;2.33;1.97;;;;;;;8.35;91.38;101173.16;5050452;28;20202;-71
2022/05/06 00:43:25;;;;;;;3.37;2.67;;;;;;;8.36;91.59;101173.97;5050266;28;20660;-71
2022/05/06 00:45:52;;;;;;;4.50;2.67;;;;;;;8.41;92.40;101173.97;5050513;28;20203;-70
2022/05/06 00:48:20;;;;;;;2.47;2.20;;;;;;;8.48;91.54;101176.38;5049872;28;20262;-71
2022/05/06 00:50:46;;;;;;;1.83;1.73;;;;;;;8.48;91.10;101181.81;5050498;28;20179;-71
2022/05/06 00:53:15;;;;;;;2.40;2.20;;;;;;;8.53;90.81;101187.25;5032403;28;20596;-72
2022/05/06 00:55:41;;;;;;;4.20;2.43;;;;;;;8.57;91.10;101174.72;5050404;28;20179;-71
2022/05/06 00:58:07;;;;;;;2.77;2.43;;;;;;;8.56;90.68;101178.53;5050252;28;20194;-72
2022/05/06 01:00:33;;;;;;;4.03;2.17;;;;;;;8.45;89.45;101185.09;5050150;28;20753;-72
2022/05/06 01:03:00;;;;;;;3.03;2.20;;;;;;;8.26;90.30;101171.28;5050742;28;20274;-71
2022/05/06 01:05:26;;;;;;;2.07;1.97;;;;;;;8.12;91.30;101179.22;5050224;28;20207;-71
2022/05/06 01:07:52;;;;;;;2.07;1.97;;;;;;;8.01;91.59;101183.03;5050093;28;20184;-72
2022/05/06 01:10:19;;;;;;;9.50;2.23;;;;;;;7.94;92.48;101177.88;5050550;28;20172;-72
2022/05/06 01:12:45;;;;;;;3.13;2.50;;;;;;;7.96;93.25;101175.72;5050338;28;20206;-72
2022/05/06 01:15:20;;;;;;;2.60;2.40;;;;;;;8.04;93.89;101174.31;5050361;28;20223;-72
2022/05/06 01:17:47;;;;;;;2.27;1.90;;;;;;;8.11;94.08;101179.50;5044294;28;20190;-71
2022/05/06 01:20:16;;;;;;;3.90;2.30;;;;;;;8.17;93.84;101173.75;5046704;28;20215;-72
2022/05/06 01:22:44;;;;;;;2.83;2.20;;;;;;;8.06;92.65;101183.03;5050090;28;20179;-71
2022/05/06 01:25:09;;;;;;;2.83;2.63;;;;;;;7.90;93.15;101193.13;5032012;28;20654;-72
2022/05/06 01:27:38;;;;;;;2.27;2.07;;;;;;;7.91;93.82;101191.22;5049721;28;20186;-71
2022/05/06 01:30:04;;;;;;;2.47;2.27;;;;;;;7.83;93.96;101180.91;5049838;28;20172;-72
2022/05/06 01:32:31;;;;;;;2.47;2.37;;;;;;;7.76;94.86;101187.44;5050194;28;20202;-72
2022/05/06 01:35:00;;;;;;;2.50;2.07;;;;;;;7.68;95.00;101181.75;5049849;28;20178;-72
2022/05/06 01:37:27;;;;;;;7.70;2.50;;;;;;;7.58;96.14;101187.19;5049754;28;20202;-72
2022/05/06 01:40:01;;;;;;;2.57;2.37;;;;;;;7.53;97.32;101181.75;5049739;28;20249;-71
2022/05/06 01:42:28;;;;;;;2.60;2.20;;;;;;;7.56;97.46;101186.66;5049701;28;20313;-72
2022/05/06 01:44:57;;;;;;;2.77;2.23;;;;;;;7.60;97.72;101182.28;5050040;28;20265;-71
2022/05/06 01:47:26;;;;;;;2.40;2.20;;;;;;;7.65;97.70;101188.53;5049797;28;20246;-72
2022/05/06 01:49:53;;;;;;;2.43;1.93;;;;;;;7.73;97.86;101184.47;5049664;28;20217;-72
2022/05/06 01:52:18;;;;;;;5.97;2.67;;;;;;;7.81;97.82;101189.34;5049804;28;20163;-71
2022/05/06 01:54:45;;;;;;;3.10;2.40;;;;;;;7.80;96.66;101186.88;5049688;28;20183;-72
2022/05/06 01:57:10;;;;;;;2.30;2.10;;;;;;;7.81;96.08;101186.63;5049566;28;20201;-71
2022/05/06 01:59:36;;;;;;;2.07;1.93;;;;;;;7.80;95.86;101184.16;5050089;28;20558;-71
2022/05/06 02:02:01;;;;;;;2.40;2.20;;;;;;;7.80;95.61;101192.31;5052074;28;20542;-71
2022/05/06 02:07:11;;;;;;;3.93;2.30;;;;;;;7.83;95.88;101202.69;5053088;28;20190;-72
2022/05/06 02:09:36;;;;;;;2.77;2.57;;;;;;;7.87;96.23;101203.75;5053481;28;20172;-70
2022/05/06 02:12:02;;;;;;;2.67;2.47;;;;;;;7.90;96.11;101204.00;5060708;28;20175;-71
2022/05/06 02:14:28;;;;;;;2.13;1.93;;;;;;;7.90;96.11;101197.75;5061063;28;20167;-71
2022/05/06 02:16:53;;;;;;;2.07;1.90;;;;;;;7.84;95.69;101196.97;5054485;28;20534;-70
2022/05/06 02:19:18;;;;;;;2.50;2.30;;;;;;;7.82;95.22;101199.16;5053840;28;20195;-71
2022/05/06 02:21:44;;;;;;;3.37;2.37;;;;;;;7.61;95.11;101197.53;5053459;28;20172;-70
2022/05/06 02:24:09;;;;;;;3.43;2.43;;;;;;;7.43;95.58;101190.72;5053186;28;20658;-70
2022/05/06 02:26:35;;;;;;;2.63;2.13;;;;;;;7.41;96.55;101196.44;5052928;28;20274;-71
2022/05/06 02:29:00;;;;;;;2.33;2.13;;;;;;;7.45;97.09;101189.38;5053081;28;20179;-70
2022/05/06 02:34:16;;;;;;;2.53;2.33;;;;;;;7.23;97.98;101190.69;5053276;28;20317;-70
2022/05/06 02:36:41;;;;;;;2.27;2.10;;;;;;;7.14;98.59;101188.53;5052737;28;20262;-71
2022/05/06 02:39:06;;;;;;;3.23;2.60;;;;;;;7.04;100.00;101187.69;5052633;28;20301;-71
2022/05/06 02:41:32;;;;;;;2.20;2.10;;;;;;;6.98;100.00;101186.06;5052288;28;20179;-72
2022/05/06 02:43:57;;;;;;;2.73;2.27;;;;;;;6.94;100.00;101179.53;5048630;28;20210;-70
2022/05/06 02:46:24;;;;;;;2.97;2.13;;;;;;;6.95;100.00;101184.72;5052405;28;20183;-71
2022/05/06 02:48:50;;;;;;;3.83;2.63;;;;;;;7.01;100.00;101185.53;5052180;28;20179;-71
2022/05/06 02:51:15;;;;;;;3.57;2.70;;;;;;;7.06;100.00;101183.63;5034557;28;20179;-71
2022/05/06 02:53:40;;;;;;;2.53;2.33;;;;;;;7.08;100.00;101183.34;5052601;28;20175;-70
2022/05/06 02:56:06;;;;;;;3.07;2.63;;;;;;;7.04;100.00;101191.22;5052456;28;20263;-71
2022/05/06 02:58:31;;;;;;;2.83;2.50;;;;;;;7.04;100.00;101187.69;5052176;28;20202;-71
2022/05/06 03:00:56;;;;;;;2.67;2.47;;;;;;;7.03;100.00;101183.34;5052292;28;20295;-71
2022/05/06 03:03:21;;;;;;;3.63;2.97;;;;;;;6.90;100.00;101187.41;5052088;28;20581;-70
2022/05/06 03:05:47;;;;;;;8.80;2.83;;;;;;;6.79;100.00;101174.88;5052187;28;20186;-71
2022/05/06 03:08:12;;;;;;;2.57;2.00;;;;;;;6.81;100.00;101167.31;5052033;28;20202;-71
2022/05/06 03:10:38;;;;;;;3.23;2.87;;;;;;;6.91;100.00;101172.72;5052171;28;20229;-71
2022/05/06 03:13:03;;;;;;;3.10;2.80;;;;;;;7.03;100.00;101169.78;5051943;28;20249;-71
2022/05/06 03:15:29;;;;;;;3.03;2.83;;;;;;;7.13;100.00;101173.31;5052184;28;20202;-71
2022/05/06 03:17:56;;;;;;;2.80;2.60;;;;;;;7.10;100.00;101170.34;5051903;28;20171;-71
2022/05/06 03:20:21;;;;;;;2.67;2.47;;;;;;;7.02;100.00;101179.81;5051947;28;20194;-70
2022/05/06 03:22:47;;;;;;;2.90;2.70;;;;;;;7.03;100.00;101177.91;5051949;28;20179;-71
2022/05/06 03:25:14;;;;;;;3.13;2.60;;;;;;;7.05;100.00;101173.84;5051917;28;20175;-71
2022/05/06 03:30:24;;;;;;;2.97;2.77;;;;;;;7.11;100.00;101191.81;5051622;28;20173;-71
2022/05/06 03:32:49;;;;;;;2.83;2.63;;;;;;;7.12;100.00;101185.28;5051815;28;20175;-71
2022/05/06 03:35:15;;;;;;;3.97;2.90;;;;;;;7.13;100.00;101186.91;5052035;28;20528;-71
2022/05/06 03:37:40;;;;;;;4.03;2.67;;;;;;;7.20;100.00;101183.09;5051425;28;20262;-71
2022/05/06 03:40:06;;;;;;;2.83;2.63;;;;;;;7.26;100.00;101188.28;5051399;28;20655;-71
2022/05/06 03:42:32;;;;;;;2.90;2.70;;;;;;;7.28;100.00;101188.81;5051540;28;20194;-71
2022/05/06 03:44:59;;;;;;;3.03;2.73;;;;;;;7.35;100.00;101185.81;5051569;28;20254;-70
2022/05/06 03:47:25;;;;;;;3.30;2.90;;;;;;;7.40;100.00;101185.84;5051444;28;20171;-71
2022/05/06 03:51:20;;;;;;;4.97;3.03;;;;;;;7.43;100.00;101183.38;5051441;28;20244;-71
2022/05/06 03:52:35;;;;;;;3.03;2.70;;;;;;;7.47;100.00;101189.09;5051475;28;20270;-71
2022/05/06 03:55:01;;;;;;;3.23;2.90;;;;;;;7.55;100.00;101194.00;5051722;28;20262;-72
2022/05/06 03:57:27;;;;;;;3.40;3.10;;;;;;;7.62;100.00;101197.25;5051209;28;20179;-71
2022/05/06 03:59:52;;;;;;;2.70;2.50;;;;;;;7.68;100.00;101190.72;5051323;28;20285;-71
2022/05/06 04:02:17;;;;;;;3.60;3.07;;;;;;;7.61;99.92;101184.72;5051325;28;20544;-72
2022/05/06 04:04:42;;;;;;;3.63;3.13;;;;;;;7.47;98.99;101195.34;5033414;28;20262;-71
2022/05/06 04:07:08;;;;;;;5.90;3.60;;;;;;;7.09;99.10;101201.31;5033146;28;20186;-71
2022/05/06 04:09:33;;;;;;;3.87;3.53;;;;;;;6.77;100.00;101196.06;5051054;28;20172;-72
2022/05/06 04:11:59;;;;;;;3.80;3.53;;;;;;;7.02;100.00;101207.00;5051125;28;20179;-72
2022/05/06 04:14:25;;;;;;;3.37;3.17;;;;;;;7.33;99.83;101212.47;5051179;28;20172;-71
2022/05/06 04:16:50;;;;;;;8.07;3.43;;;;;;;7.49;98.95;101208.66;5051176;28;20260;-72
2022/05/06 04:19:16;;;;;;;3.80;3.03;;;;;;;7.56;97.78;101217.38;5050908;28;20245;-71
2022/05/06 04:24:25;;;;;;;3.37;3.07;;;;;;;7.61;96.46;101220.09;5050325;28;20202;-71
2022/05/06 04:26:50;;;;;;;3.80;3.50;;;;;;;7.69;96.39;101219.56;5051191;28;20210;-71
2022/05/06 04:29:15;;;;;;;3.57;3.27;;;;;;;7.87;94.43;101212.72;5050640;28;20229;-72
2022/05/06 04:31:41;;;;;;;2.90;2.70;;;;;;;7.94;93.20;101224.13;5050961;28;20171;-72
2022/05/06 04:34:07;;;;;;;4.50;3.50;;;;;;;7.83;92.76;101224.44;5051240;28;20179;-71
2022/05/06 04:36:32;;;;;;;5.37;3.47;;;;;;;7.70;94.53;101223.91;5050707;28;20175;-71
2022/05/06 04:38:58;;;;;;;3.70;3.40;;;;;;;7.59;95.11;101221.44;5032931;28;20179;-71
2022/05/06 04:41:24;;;;;;;3.80;3.50;;;;;;;7.45;95.83;101221.19;5050914;28;20175;-71
2022/05/06 04:43:50;;;;;;;4.27;3.03;;;;;;;7.64;96.62;101230.41;5050623;28;20237;-71
2022/05/06 04:46:15;;;;;;;4.13;3.63;;;;;;;7.88;96.10;101235.31;5050605;28;20521;-71
2022/05/06 04:48:40;;;;;;;4.07;3.67;;;;;;;7.97;95.02;101237.22;5050489;28;20175;-72
2022/05/06 04:51:06;;;;;;;3.67;3.37;;;;;;;8.05;95.05;101239.34;5050469;28;20163;-71
2022/05/06 04:53:31;;;;;;;5.63;3.70;;;;;;;7.94;95.97;101243.19;5051071;28;20214;-72
2022/05/06 04:55:57;;;;;;;4.40;4.00;;;;;;;7.94;96.86;101242.34;5032645;28;20262;-71
2022/05/06 04:58:23;;;;;;;3.97;3.53;;;;;;;8.11;96.72;101242.91;5050547;28;20641;-71
2022/05/06 05:00:48;;;;;;;4.40;3.30;;;;;;;8.30;95.57;101243.94;5050542;28;20207;-71
2022/05/06 05:03:14;;;;;;;3.50;2.80;;;;;;;8.52;94.40;101242.81;5050417;28;20658;-70
2022/05/06 05:05:39;;;;;;;3.60;3.30;;;;;;;8.60;92.69;101253.13;5050474;28;20217;-72
2022/05/06 05:08:08;;;;;;;4.80;3.70;;;;;;;8.42;93.09;101253.75;5050293;28;20391;-71
2022/05/06 05:10:33;;;;;;;3.60;3.30;;;;;;;8.42;94.24;101254.56;5050474;28;20194;-71
2022/05/06 05:12:58;;;;;;;3.63;3.33;;;;;;;8.47;94.28;101251.81;5050415;28;20643;-72
2022/05/06 05:15:24;;;;;;;3.53;3.23;;;;;;;8.51;94.08;101252.06;5050452;28;20508;-72
2022/05/06 05:17:49;;;;;;;5.03;3.50;;;;;;;8.53;93.89;101249.88;5050258;28;20167;-64
2022/05/06 05:20:15;;;;;;;4.23;3.93;;;;;;;8.61;92.98;101257.50;5050219;28;20195;-72
2022/05/06 05:22:41;;;;;;;4.40;4.00;;;;;;;8.60;92.36;101256.66;5050208;28;20210;-71
2022/05/06 05:25:07;;;;;;;3.90;3.60;;;;;;;8.74;93.25;101254.16;5032357;28;20181;-71
2022/05/06 05:27:34;;;;;;;4.03;3.63;;;;;;;8.83;92.15;101259.88;5032299;28;20175;-72
2022/05/06 05:30:00;;;;;;;4.00;3.70;;;;;;;8.97;92.39;101257.31;5049949;28;20207;-71
2022/05/06 05:32:26;;;;;;;4.67;3.80;;;;;;;9.00;90.54;101257.59;5050043;28;20174;-71
2022/05/06 05:34:52;;;;;;;4.10;3.37;;;;;;;9.11;90.42;101258.31;5051095;28;20177;-71
2022/05/06 05:37:17;;;;;;;4.00;3.70;;;;;;;9.25;91.17;101268.31;5053976;28;20167;-72
2022/05/06 05:39:43;;;;;;;6.47;3.63;;;;;;;9.38;90.64;101266.06;5053844;28;20198;-72
2022/05/06 05:42:09;;;;;;;4.00;3.67;;;;;;;9.44;89.23;101268.50;5053816;28;20187;-72
2022/05/06 05:50:02;;;;;;;4.23;3.90;;;;;;;9.89;87.83;101265.69;5054038;28;20252;-71
2022/05/06 05:52:28;;;;;;;4.43;3.80;;;;;;;10.02;87.39;101270.50;5053857;28;20175;-71
2022/05/06 05:54:54;;;;;;;5.97;3.43;;;;;;;10.11;86.99;101277.75;5053813;28;20659;-72
2022/05/06 05:57:19;;;;;;;4.57;4.17;;;;;;;10.21;86.42;101276.88;5053436;28;20229;-72
2022/05/06 05:59:44;;;;;;;6.27;4.10;;;;;;;10.30;85.85;101268.88;5053531;28;20277;-72
2022/05/06 06:02:11;;;;;;;4.77;3.70;;;;;;;10.40;85.09;101272.28;5053565;28;20639;-74
2022/05/06 06:04:37;;;;;;;5.83;4.17;;;;;;;10.50;84.43;101265.91;5053536;28;20175;-72
2022/05/06 06:07:03;;;;;;;5.77;4.40;;;;;;;10.52;84.62;101269.16;5053512;28;20163;-74
2022/05/06 06:09:28;;;;;;;5.67;4.07;;;;;;;10.63;85.10;101270.69;5053477;28;20241;-71
2022/05/06 06:11:53;;;;;;;3.93;3.63;;;;;;;10.79;87.28;101270.50;5053838;28;20194;-76
2022/05/06 06:14:19;;;;;;;4.07;3.73;;;;;;;10.80;88.58;101274.84;5053567;28;20800;-71
2022/05/06 06:16:44;;;;;;;4.57;4.20;;;;;;;10.94;88.40;101281.25;5053525;28;20624;-70
2022/05/06 06:19:10;;;;;;;4.70;4.13;;;;;;;10.98;88.13;101282.28;5053046;28;20179;-71
2022/05/06 06:21:35;;;;;;;5.63;3.70;;;;;;;11.22;88.76;101290.44;5053216;28;20389;-70
2022/05/06 06:24:01;;;;;;;4.47;4.07;;;;;;;11.27;84.73;101282.16;5053363;28;20178;-71
2022/05/06 06:26:26;;;;;;;3.43;3.13;;;;;;;11.44;84.86;101276.19;5053084;28;20241;-71
2022/05/06 06:28:52;;;;;;;4.37;4.07;;;;;;;11.52;82.72;101283.72;5053062;28;20731;-71
2022/05/06 06:31:18;;;;;;;4.70;4.03;;;;;;;11.56;82.12;101282.81;5052994;28;20727;-71
2022/05/06 06:33:43;;;;;;;4.20;3.83;;;;;;;11.71;81.57;101287.22;5052977;28;20179;-71
2022/05/06 06:36:09;;;;;;;3.73;3.33;;;;;;;11.87;79.74;101293.34;5053110;28;20175;-71
2022/05/06 06:38:35;;;;;;;4.70;4.30;;;;;;;11.99;77.48;101292.84;5034818;28;20183;-70
2022/05/06 06:41:00;;;;;;;4.07;3.73;;;;;;;12.03;77.44;101296.63;5053034;28;20272;-72
2022/05/06 06:43:26;;;;;;;4.57;4.10;;;;;;;12.26;79.00;101298.38;5052802;28;20189;-71
2022/05/06 06:45:51;;;;;;;4.47;4.07;;;;;;;12.34;80.25;101296.91;5052682;28;20179;-71
2022/05/06 06:48:17;;;;;;;4.37;4.07;;;;;;;12.60;81.38;101291.75;5051967;28;20176;-71
2022/05/06 06:50:42;;;;;;;4.63;4.23;;;;;;;12.60;79.12;101295.31;5052376;28;20182;-71
2022/05/06 06:53:07;;;;;;;4.43;4.03;;;;;;;12.72;80.19;101298.31;5052235;28;20278;-71
2022/05/06 06:55:34;;;;;;;6.60;5.00;;;;;;;12.93;79.39;101301.47;5052314;28;20536;-71
2022/05/06 06:57:59;;;;;;;6.07;3.93;;;;;;;12.97;76.42;101304.41;5052078;28;20190;-71
2022/05/06 07:00:25;;;;;;;4.60;4.20;;;;;;;12.97;74.87;101301.69;5051917;28;20675;-71
2022/05/06 07:02:50;;;;;;;3.70;3.40;;;;;;;12.92;74.39;101307.28;5052144;28;20183;-71
2022/05/06 07:05:16;;;;;;;4.57;4.17;;;;;;;12.98;74.63;101304.13;5052016;28;20175;-71
2022/05/06 07:13:10;;;;;;;4.40;4.00;;;;;;;13.11;74.35;101307.97;5052094;28;20210;-71
2022/05/06 07:15:35;;;;;;;4.83;4.43;;;;;;;13.22;75.35;101306.66;5051915;28;20581;-71
2022/05/06 07:18:01;;;;;;;4.83;4.43;;;;;;;13.32;74.39;101303.69;5051491;28;20172;-71
2022/05/06 07:20:26;;;;;;;5.20;4.33;;;;;;;13.40;74.15;101307.63;5051607;28;20290;-71
2022/05/06 07:22:51;;;;;;;4.27;3.97;;;;;;;13.68;75.12;101322.09;5051815;28;20171;-71
2022/05/06 07:25:17;;;;;;;4.27;3.97;;;;;;;13.96;73.97;101315.34;5051739;28;20186;-71
2022/05/06 07:27:43;;;;;;;4.27;3.97;;;;;;;13.88;72.87;101312.53;5051359;28;20194;-71
2022/05/06 07:30:09;;;;;;;8.60;4.30;;;;;;;13.98;73.06;101317.78;5050994;28;20631;-71
2022/05/06 07:32:36;;;;;;;5.30;4.80;;;;;;;13.96;72.60;101309.06;5051697;28;20191;-71
2022/05/06 07:35:01;;;;;;;4.73;4.33;;;;;;;14.16;73.31;101325.00;5051588;28;20631;-71
2022/05/06 07:37:33;;;;;;;4.60;4.20;;;;;;;14.23;72.18;101314.41;5051366;28;20178;-71
2022/05/06 07:39:58;;;;;;;5.20;4.80;;;;;;;14.23;71.81;101321.84;5051647;28;20654;-71
2022/05/06 07:42:25;;;;;;;4.33;4.00;;;;;;;14.36;72.10;101317.38;5046011;28;20191;-73
2022/05/06 07:44:50;;;;;;;5.43;4.93;;;;;;;14.27;71.52;101318.13;5046559;28;20626;-72
2022/05/06 07:47:16;;;;;;;5.07;4.40;;;;;;;14.39;71.75;101319.50;5050644;28;20181;-71
2022/05/06 07:49:41;;;;;;;5.27;4.77;;;;;;;14.37;70.85;101321.75;5051250;28;20270;-71
2022/05/06 07:52:07;;;;;;;4.37;4.07;;;;;;;14.46;71.28;101319.88;5051247;28;20205;-72
2022/05/06 07:54:32;;;;;;;7.67;4.73;;;;;;;14.56;70.49;101312.16;5051096;28;20190;-72
2022/05/06 07:56:58;;;;;;;4.47;4.00;;;;;;;14.46;70.07;101317.94;5031819;28;20186;-71
2022/05/06 07:59:23;;;;;;;5.60;4.23;;;;;;;14.52;69.84;101315.88;5048142;28;20353;-71
2022/05/06 08:04:32;;;;;;;5.10;4.33;;;;;;;14.90;69.04;101316.19;5049431;28;20599;-71
2022/05/06 08:06:59;;;;;;;4.47;4.17;;;;;;;14.93;69.09;101310.06;5049134;28;20255;-71
2022/05/06 08:09:25;;;;;;;4.43;4.03;;;;;;;15.08;67.02;101309.59;5048944;28;20176;-71
2022/05/06 08:11:50;;;;;;;4.27;3.97;;;;;;;15.15;67.07;101306.38;5049224;28;20682;-71
2022/05/06 08:14:16;;;;;;;6.23;4.47;;;;;;;15.20;66.40;101311.75;5050779;28;20164;-71
2022/05/06 08:16:43;;;;;;;3.10;2.80;;;;;;;15.26;65.88;101312.38;5050614;28;20175;-71
2022/05/06 08:19:09;;;;;;;4.07;3.30;;;;;;;15.30;65.06;101310.59;5050434;28;20550;-71
2022/05/06 08:21:35;;;;;;;3.17;2.97;;;;;;;15.40;65.72;101308.34;5051078;28;20199;-71
2022/05/06 08:24:00;;;;;;;6.13;2.40;;;;;;;15.47;64.99;101313.38;5050567;28;20171;-71
2022/05/06 08:26:25;;;;;;;2.40;2.20;;;;;;;15.54;60.92;101308.19;5050460;28;20253;-71
2022/05/06 08:28:51;;;;;;;2.33;2.13;;;;;;;15.58;58.30;101319.38;5050397;28;20225;-71
2022/05/06 08:31:16;;;;;;;4.17;2.00;;;;;;;15.69;58.46;101315.19;5050400;28;20167;-71
2022/05/06 08:33:41;;;;;;;2.30;2.03;;;;;;;15.82;58.76;101319.75;5050679;28;20207;-71
2022/05/06 08:36:07;;;;;;;3.13;2.60;;;;;;;15.88;59.10;101312.91;5050437;28;20185;-71
2022/05/06 08:38:32;;;;;;;2.50;2.30;;;;;;;15.89;58.89;101313.72;5045061;28;20253;-71
2022/05/06 08:41:00;;;;;;;3.13;2.33;;;;;;;16.06;59.58;101311.78;5050459;28;20210;-71
2022/05/06 08:43:26;;;;;;;3.03;2.33;;;;;;;16.12;57.26;101315.16;5050450;28;20191;-71
2022/05/06 08:51:30;;;;;;;2.93;2.63;;;;;;;16.43;56.06;101308.59;5050845;28;20177;-71
2022/05/06 08:53:55;;;;;;;2.63;2.43;;;;;;;16.42;56.86;101316.06;5050308;28;20554;-71
2022/05/06 08:56:21;;;;;;;2.63;2.40;;;;;;;16.60;56.86;101314.84;5049285;28;20176;-71
2022/05/06 08:58:46;;;;;;;3.87;3.43;;;;;;;16.56;54.17;101310.31;5050320;28;20374;-71
2022/05/06 09:01:13;;;;;;;3.40;3.10;;;;;;;16.53;51.83;101314.56;5041355;28;20254;-71
2022/05/06 09:03:40;;;;;;;4.60;2.30;;;;;;;16.57;52.23;101310.00;5049565;28;20183;-71
2022/05/06 09:06:17;;;;;;;2.47;2.27;;;;;;;16.45;53.70;101304.34;5041473;28;20636;-71
2022/05/06 09:08:43;;;;;;;4.30;2.80;;;;;;;16.49;53.12;101298.97;5056690;28;20163;-71
2022/05/06 09:11:09;;;;;;;3.27;2.20;;;;;;;16.59;52.15;101309.66;5061689;28;20277;-71
2022/05/06 09:13:39;;;;;;;2.07;1.93;;;;;;;16.69;51.77;101308.53;5056098;28;20640;-71
2022/05/06 09:16:39;;;;;;;3.37;2.37;;;;;;;16.82;52.62;101301.97;5053968;28;20186;-71
2022/05/06 09:19:11;;;;;;;2.93;2.30;;;;;;;16.61;51.33;101310.13;5053896;28;20225;-71
2022/05/06 09:21:37;;;;;;;2.73;2.07;;;;;;;16.89;53.67;101303.06;5053914;28;20179;-71
2022/05/06 09:24:19;;;;;;;8.10;2.70;;;;;;;17.13;52.92;101302.44;5053744;28;20232;-71
2022/05/06 09:27:03;;;;;;;3.80;3.10;;;;;;;17.11;52.11;101301.97;5054124;28;20175;-71
2022/05/06 09:29:42;;;;;;;2.90;2.53;;;;;;;16.93;50.64;101300.47;5054514;28;20899;-71
2022/05/06 09:32:23;;;;;;;2.70;2.50;;;;;;;16.87;51.33;101307.28;5054403;28;20229;-71
2022/05/06 09:34:48;;;;;;;2.90;2.37;;;;;;;17.05;51.91;101308.00;5053966;28;20190;-71
2022/05/06 09:37:30;;;;;;;3.20;2.47;;;;;;;16.86;50.08;101308.44;5053905;28;20171;-72
2022/05/06 09:40:09;;;;;;;3.87;2.50;;;;;;;16.82;50.52;101310.25;5053941;28;20199;-71
2022/05/06 09:42:37;;;;;;;3.40;2.23;;;;;;;17.20;51.08;101308.22;5053839;28;20555;-71
2022/05/06 09:45:03;;;;;;;3.50;2.80;;;;;;;17.40;49.02;101309.41;5053772;28;20535;-71
2022/05/06 09:47:29;;;;;;;3.10;2.30;;;;;;;17.77;49.63;101306.84;5053630;28;20171;-71
2022/05/06 09:49:55;;;;;;;2.57;2.30;;;;;;;17.85;48.75;101300.44;5053597;28;20233;-71
2022/05/06 09:52:20;;;;;;;5.10;3.27;;;;;;;17.80;47.55;101298.72;5053619;28;20179;-71
2022/05/06 09:54:48;;;;;;;3.90;3.30;;;;;;;17.82;47.17;101296.41;5053928;28;20182;-71
2022/05/06 09:57:18;;;;;;;3.50;3.20;;;;;;;17.52;47.22;101292.09;5053223;28;20171;-71
2022/05/06 09:59:44;;;;;;;2.67;2.30;;;;;;;17.82;49.16;101299.19;5053309;28;20199;-71
2022/05/06 10:02:10;;;;;;;3.27;2.97;;;;;;;17.95;49.77;101293.69;5053311;28;20228;-71
2022/05/06 10:04:36;;;;;;;3.73;3.13;;;;;;;17.91;48.96;101290.78;5053270;28;20171;-71
2022/05/06 10:07:09;;;;;;;3.40;3.10;;;;;;;17.86;48.13;101279.94;5053050;28;20171;-71
2022/05/06 10:09:40;;;;;;;3.37;3.07;;;;;;;18.14;50.21;101288.44;5053118;28;20179;-71
2022/05/06 10:12:08;;;;;;;4.63;3.60;;;;;;;18.16;48.68;101286.16;5053609;28;20168;-71
2022/05/06 10:14:34;;;;;;;5.27;3.47;;;;;;;18.32;48.24;101281.56;5053217;28;20175;-71
2022/05/06 10:16:59;;;;;;;3.27;2.97;;;;;;;17.79;47.21;101279.66;5052515;28;20198;-71
2022/05/06 10:19:46;;;;;;;3.73;3.30;;;;;;;17.69;47.75;101286.44;5052671;28;20772;-71
2022/05/06 10:22:11;;;;;;;3.47;3.10;;;;;;;18.00;47.63;101272.16;5051890;28;20187;-71
2022/05/06 10:24:50;;;;;;;2.73;2.53;;;;;;;18.36;48.19;101271.41;5053269;28;20501;-71
2022/05/06 10:33:18;;;;;;;2.50;2.30;;;;;;;18.68;46.18;101267.00;5047546;28;20198;-70
2022/05/06 10:35:47;;;;;;;3.30;2.13;;;;;;;18.81;45.93;101264.22;5052772;28;20623;-71
2022/05/06 10:38:26;;;;;;;2.60;2.40;;;;;;;18.82;46.16;101269.41;5052511;28;20187;-71
2022/05/06 10:40:56;;;;;;;2.63;2.27;;;;;;;19.00;46.31;101254.16;5052374;28;20205;-71
2022/05/06 10:43:40;;;;;;;2.50;2.23;;;;;;;19.33;46.29;101256.72;5052377;28;20183;-71
2022/05/06 10:46:06;;;;;;;2.80;1.93;;;;;;;19.37;44.63;101248.50;5034535;28;20316;-71
2022/05/06 10:48:31;;;;;;;2.70;1.80;;;;;;;19.39;44.51;101251.78;5052127;28;20254;-71
2022/05/06 10:51:27;;;;;;;2.27;2.07;;;;;;;19.39;46.95;101249.00;5052557;28;20183;-71
2022/05/06 10:53:53;;;;;;;3.03;2.17;;;;;;;19.57;45.91;101246.75;5052336;28;20178;-71
2022/05/06 10:56:18;;;;;;;4.63;2.43;;;;;;;19.58;45.70;101245.59;5052220;28;20171;-72
2022/05/06 10:58:44;;;;;;;1.90;1.80;;;;;;;19.66;45.83;101241.84;5052028;28;20171;-71
2022/05/06 11:01:16;;;;;;;2.10;1.90;;;;;;;19.75;46.24;101247.25;5052043;28;20232;-71
2022/05/06 11:03:54;;;;;;;2.23;2.10;;;;;;;19.44;44.64;101239.63;5052103;28;20187;-72
2022/05/06 11:06:23;;;;;;;2.20;1.70;;;;;;;19.55;46.19;101238.81;5052011;28;20175;-71
2022/05/06 11:08:49;;;;;;;4.90;2.13;;;;;;;19.71;46.40;101235.28;5051955;28;20183;-71
2022/05/06 11:11:19;;;;;;;1.53;1.43;;;;;;;19.65;45.85;101234.69;5051873;28;20167;-71
2022/05/06 11:13:47;;;;;;;2.10;1.90;;;;;;;19.39;45.35;101232.38;5051938;28;20167;-71
2022/05/06 11:16:14;;;;;;;3.20;1.50;;;;;;;19.42;46.71;101239.97;5051457;28;20635;-71
2022/05/06 11:18:43;;;;;;;2.30;1.90;;;;;;;19.35;44.77;101234.22;5051647;28;20175;-72
2022/05/06 11:21:22;;;;;;;2.40;2.20;;;;;;;19.84;45.75;101234.06;5051779;28;20603;-72
2022/05/06 11:23:47;;;;;;;2.20;1.70;;;;;;;19.82;45.40;101230.84;5051803;28;20702;-71
2022/05/06 11:26:26;;;;;;;1.50;1.40;;;;;;;19.58;43.76;101227.00;5051873;28;20167;-71
2022/05/06 11:29:05;;;;;;;1.63;1.20;;;;;;;19.45;44.43;101211.53;5051684;28;20174;-71
2022/05/06 11:31:30;;;;;;;2.13;1.70;;;;;;;18.75;44.29;101222.09;5050451;28;20185;-71
2022/05/06 11:34:05;;;;;;;1.87;1.57;;;;;;;18.88;44.67;101214.59;5051738;28;20163;-72
2022/05/06 11:36:32;;;;;;;1.57;1.47;;;;;;;19.28;45.86;101226.50;5047880;28;20671;-71
2022/05/06 11:38:57;;;;;;;2.77;1.80;;;;;;;19.30;44.67;101210.34;5043297;28;20179;-72
2022/05/06 11:41:24;;;;;;;1.80;1.70;;;;;;;19.59;44.96;101217.53;5051535;28;20286;-72
2022/05/06 11:43:49;;;;;;;1.70;1.60;;;;;;;19.75;44.71;101217.56;5051432;28;20229;-71
2022/05/06 11:49:00;;;;;;;3.10;1.60;;;;;;;20.44;44.64;101201.53;5051761;28;20386;-72
2022/05/06 11:51:30;;;;;;;1.50;1.37;;;;;;;20.18;42.52;101205.63;5051412;28;20641;-71
2022/05/06 11:53:56;;;;;;;2.63;1.60;;;;;;;19.91;44.30;101206.50;5051520;28;20182;-71
2022/05/06 11:56:25;;;;;;;3.40;2.20;;;;;;;19.86;42.98;101195.66;5051481;28;20171;-71
2022/05/06 11:59:00;;;;;;;2.30;1.67;;;;;;;20.09;42.59;101199.44;5051070;28;20221;-71
2022/05/06 12:01:37;;;;;;;1.60;1.50;;;;;;;20.29;44.06;101205.91;5051202;28;20206;-71
2022/05/06 12:04:10;;;;;;;2.77;1.80;;;;;;;20.16;42.70;101191.31;5051233;28;20164;-71
2022/05/06 12:06:38;;;;;;;1.60;1.50;;;;;;;20.04;43.74;101191.38;5050315;28;20221;-71
2022/05/06 12:09:21;;;;;;;2.67;1.60;;;;;;;19.91;41.68;101192.63;5050714;28;20596;-73